sensor_id;sensor_type;location;lat;lon;timestamp;P1;durP1;ratioP1;P2;durP2;ratioP2
80195;SDS011;69516;42.050;21.516;2023-07-13T00:00:21;9.35;;;5.65;;
80195;SDS011;69516;42.050;21.516;2023-07-13T00:02:48;11.00;;;5.95;;
80195;SDS011;69516;42.050;21.516;2023-07-13T00:05:14;10.77;;;6.18;;
80195;SDS011;69516;42.050;21.516;2023-07-13T00:07:41;11.73;;;6.68;;
80195;SDS011;69516;42.050;21.516;2023-07-13T00:10:07;12.55;;;6.88;;
80195;SDS011;69516;42.050;21.516;2023-07-13T00:12:36;11.63;;;7.05;;
80195;SDS011;69516;42.050;21.516;2023-07-13T00:15:05;10.75;;;6.53;;
80195;SDS011;69516;42.050;21.516;2023-07-13T00:17:31;12.45;;;6.40;;
80195;SDS011;69516;42.050;21.516;2023-07-13T00:19:57;9.35;;;5.50;;
80195;SDS011;69516;42.050;21.516;2023-07-13T00:22:24;12.40;;;6.80;;
80195;SDS011;69516;42.050;21.516;2023-07-13T00:24:53;10.63;;;6.22;;
80195;SDS011;69516;42.050;21.516;2023-07-13T00:27:21;11.10;;;6.43;;
80195;SDS011;69516;42.050;21.516;2023-07-13T00:29:47;10.38;;;6.13;;
80195;SDS011;69516;42.050;21.516;2023-07-13T00:32:13;11.40;;;7.10;;
80195;SDS011;69516;42.050;21.516;2023-07-13T00:34:40;12.90;;;6.65;;
80195;SDS011;69516;42.050;21.516;2023-07-13T00:37:07;14.35;;;8.35;;
80195;SDS011;69516;42.050;21.516;2023-07-13T00:39:33;13.85;;;7.00;;
80195;SDS011;69516;42.050;21.516;2023-07-13T00:42:00;10.38;;;6.57;;
80195;SDS011;69516;42.050;21.516;2023-07-13T00:44:26;11.93;;;6.95;;
80195;SDS011;69516;42.050;21.516;2023-07-13T00:46:52;13.30;;;7.57;;
80195;SDS011;69516;42.050;21.516;2023-07-13T00:49:19;10.77;;;6.60;;
80195;SDS011;69516;42.050;21.516;2023-07-13T00:52:02;10.60;;;6.57;;
80195;SDS011;69516;42.050;21.516;2023-07-13T00:54:30;11.82;;;6.65;;
80195;SDS011;69516;42.050;21.516;2023-07-13T00:56:58;11.15;;;6.70;;
80195;SDS011;69516;42.050;21.516;2023-07-13T00:59:25;12.73;;;7.10;;
80195;SDS011;69516;42.050;21.516;2023-07-13T01:01:51;11.65;;;6.50;;
80195;SDS011;69516;42.050;21.516;2023-07-13T01:04:18;11.48;;;6.35;;
80195;SDS011;69516;42.050;21.516;2023-07-13T01:06:44;11.55;;;6.97;;
80195;SDS011;69516;42.050;21.516;2023-07-13T01:09:12;10.98;;;6.75;;
80195;SDS011;69516;42.050;21.516;2023-07-13T01:11:38;11.60;;;6.47;;
80195;SDS011;69516;42.050;21.516;2023-07-13T01:14:06;10.63;;;6.65;;
80195;SDS011;69516;42.050;21.516;2023-07-13T01:16:33;13.00;;;6.53;;
80195;SDS011;69516;42.050;21.516;2023-07-13T01:19:00;12.43;;;6.95;;
80195;SDS011;69516;42.050;21.516;2023-07-13T01:21:27;12.52;;;6.18;;
80195;SDS011;69516;42.050;21.516;2023-07-13T01:23:54;11.65;;;6.43;;
80195;SDS011;69516;42.050;21.516;2023-07-13T01:26:20;10.98;;;6.18;;
80195;SDS011;69516;42.050;21.516;2023-07-13T01:28:47;12.55;;;6.55;;
80195;SDS011;69516;42.050;21.516;2023-07-13T01:31:13;13.52;;;6.30;;
80195;SDS011;69516;42.050;21.516;2023-07-13T01:33:39;11.85;;;5.82;;
80195;SDS011;69516;42.050;21.516;2023-07-13T01:36:06;11.40;;;6.22;;
80195;SDS011;69516;42.050;21.516;2023-07-13T01:38:33;11.27;;;5.65;;
80195;SDS011;69516;42.050;21.516;2023-07-13T01:40:59;9.70;;;6.28;;
80195;SDS011;69516;42.050;21.516;2023-07-13T01:43:25;10.52;;;6.03;;
80195;SDS011;69516;42.050;21.516;2023-07-13T01:45:51;12.43;;;6.78;;
80195;SDS011;69516;42.050;21.516;2023-07-13T01:48:18;10.95;;;6.13;;
80195;SDS011;69516;42.050;21.516;2023-07-13T01:50:45;12.60;;;6.72;;
80195;SDS011;69516;42.050;21.516;2023-07-13T01:53:11;12.02;;;6.53;;
80195;SDS011;69516;42.050;21.516;2023-07-13T01:55:37;12.35;;;6.72;;
80195;SDS011;69516;42.050;21.516;2023-07-13T01:58:03;11.40;;;6.60;;
80195;SDS011;69516;42.050;21.516;2023-07-13T02:00:30;12.85;;;7.00;;
80195;SDS011;69516;42.050;21.516;2023-07-13T02:02:56;12.85;;;6.72;;
80195;SDS011;69516;42.050;21.516;2023-07-13T02:05:22;13.35;;;7.40;;
80195;SDS011;69516;42.050;21.516;2023-07-13T02:07:48;10.63;;;6.38;;
80195;SDS011;69516;42.050;21.516;2023-07-13T02:10:15;14.63;;;6.80;;
80195;SDS011;69516;42.050;21.516;2023-07-13T02:12:41;12.07;;;6.43;;
80195;SDS011;69516;42.050;21.516;2023-07-13T02:15:08;12.32;;;7.13;;
80195;SDS011;69516;42.050;21.516;2023-07-13T02:17:35;11.82;;;6.80;;
80195;SDS011;69516;42.050;21.516;2023-07-13T02:20:01;12.05;;;6.57;;
80195;SDS011;69516;42.050;21.516;2023-07-13T02:22:28;11.23;;;6.35;;
80195;SDS011;69516;42.050;21.516;2023-07-13T02:24:54;10.98;;;6.50;;
80195;SDS011;69516;42.050;21.516;2023-07-13T02:27:21;13.20;;;6.68;;
80195;SDS011;69516;42.050;21.516;2023-07-13T02:29:47;10.02;;;6.53;;
80195;SDS011;69516;42.050;21.516;2023-07-13T02:32:13;11.50;;;6.45;;
80195;SDS011;69516;42.050;21.516;2023-07-13T02:34:40;10.38;;;6.80;;
80195;SDS011;69516;42.050;21.516;2023-07-13T02:37:07;11.20;;;6.53;;
80195;SDS011;69516;42.050;21.516;2023-07-13T02:39:33;13.30;;;6.82;;
80195;SDS011;69516;42.050;21.516;2023-07-13T02:41:59;11.25;;;7.25;;
80195;SDS011;69516;42.050;21.516;2023-07-13T02:44:26;11.60;;;6.85;;
80195;SDS011;69516;42.050;21.516;2023-07-13T02:46:52;10.35;;;6.72;;
80195;SDS011;69516;42.050;21.516;2023-07-13T02:49:18;12.38;;;7.18;;
80195;SDS011;69516;42.050;21.516;2023-07-13T02:51:44;12.18;;;7.38;;
80195;SDS011;69516;42.050;21.516;2023-07-13T02:54:10;10.35;;;6.97;;
80195;SDS011;69516;42.050;21.516;2023-07-13T02:56:38;12.77;;;7.47;;
80195;SDS011;69516;42.050;21.516;2023-07-13T02:59:05;10.13;;;6.55;;
80195;SDS011;69516;42.050;21.516;2023-07-13T03:01:31;12.57;;;6.25;;
80195;SDS011;69516;42.050;21.516;2023-07-13T03:03:57;13.35;;;7.05;;
80195;SDS011;69516;42.050;21.516;2023-07-13T03:06:23;11.93;;;6.57;;
80195;SDS011;69516;42.050;21.516;2023-07-13T03:08:50;12.20;;;7.45;;
80195;SDS011;69516;42.050;21.516;2023-07-13T03:11:17;15.18;;;7.20;;
80195;SDS011;69516;42.050;21.516;2023-07-13T03:13:43;13.93;;;6.90;;
80195;SDS011;69516;42.050;21.516;2023-07-13T03:16:10;11.38;;;6.78;;
80195;SDS011;69516;42.050;21.516;2023-07-13T03:18:37;17.17;;;8.10;;
80195;SDS011;69516;42.050;21.516;2023-07-13T03:21:03;11.57;;;7.32;;
80195;SDS011;69516;42.050;21.516;2023-07-13T03:23:29;13.50;;;6.85;;
80195;SDS011;69516;42.050;21.516;2023-07-13T03:26:09;11.85;;;6.75;;
80195;SDS011;69516;42.050;21.516;2023-07-13T03:28:36;10.43;;;7.22;;
80195;SDS011;69516;42.050;21.516;2023-07-13T03:31:06;13.82;;;7.03;;
80195;SDS011;69516;42.050;21.516;2023-07-13T03:33:33;11.05;;;6.82;;
80195;SDS011;69516;42.050;21.516;2023-07-13T03:35:59;12.38;;;7.28;;
80195;SDS011;69516;42.050;21.516;2023-07-13T03:38:26;13.98;;;7.35;;
80195;SDS011;69516;42.050;21.516;2023-07-13T03:40:52;14.68;;;6.88;;
80195;SDS011;69516;42.050;21.516;2023-07-13T03:43:19;12.55;;;6.95;;
80195;SDS011;69516;42.050;21.516;2023-07-13T03:45:45;13.57;;;7.28;;
80195;SDS011;69516;42.050;21.516;2023-07-13T03:48:12;13.68;;;7.60;;
80195;SDS011;69516;42.050;21.516;2023-07-13T03:50:38;16.73;;;9.85;;
80195;SDS011;69516;42.050;21.516;2023-07-13T03:53:04;31.67;;;15.65;;
80195;SDS011;69516;42.050;21.516;2023-07-13T03:55:30;17.20;;;9.20;;
80195;SDS011;69516;42.050;21.516;2023-07-13T03:58:05;15.57;;;8.52;;
80195;SDS011;69516;42.050;21.516;2023-07-13T04:00:45;17.00;;;8.75;;
80195;SDS011;69516;42.050;21.516;2023-07-13T04:03:12;17.00;;;10.35;;
80195;SDS011;69516;42.050;21.516;2023-07-13T04:05:38;14.25;;;8.93;;
80195;SDS011;69516;42.050;21.516;2023-07-13T04:08:05;15.35;;;8.00;;
80195;SDS011;69516;42.050;21.516;2023-07-13T04:10:32;12.00;;;8.05;;
80195;SDS011;69516;42.050;21.516;2023-07-13T04:12:58;12.05;;;7.40;;
80195;SDS011;69516;42.050;21.516;2023-07-13T04:15:24;11.80;;;7.95;;
80195;SDS011;69516;42.050;21.516;2023-07-13T04:17:50;12.02;;;7.00;;
80195;SDS011;69516;42.050;21.516;2023-07-13T04:20:16;14.70;;;7.28;;
80195;SDS011;69516;42.050;21.516;2023-07-13T04:22:44;11.45;;;6.22;;
80195;SDS011;69516;42.050;21.516;2023-07-13T04:25:11;26.23;;;9.32;;
80195;SDS011;69516;42.050;21.516;2023-07-13T04:27:37;14.73;;;7.57;;
80195;SDS011;69516;42.050;21.516;2023-07-13T04:30:06;13.90;;;7.25;;
80195;SDS011;69516;42.050;21.516;2023-07-13T04:32:32;11.23;;;7.15;;
80195;SDS011;69516;42.050;21.516;2023-07-13T04:34:58;11.65;;;7.80;;
80195;SDS011;69516;42.050;21.516;2023-07-13T04:37:25;13.10;;;7.82;;
80195;SDS011;69516;42.050;21.516;2023-07-13T04:39:52;10.77;;;6.32;;
80195;SDS011;69516;42.050;21.516;2023-07-13T04:42:18;12.63;;;6.63;;
80195;SDS011;69516;42.050;21.516;2023-07-13T04:44:48;10.82;;;6.50;;
80195;SDS011;69516;42.050;21.516;2023-07-13T04:47:14;12.80;;;6.65;;
80195;SDS011;69516;42.050;21.516;2023-07-13T04:49:40;10.98;;;6.85;;
80195;SDS011;69516;42.050;21.516;2023-07-13T04:52:06;11.32;;;6.20;;
80195;SDS011;69516;42.050;21.516;2023-07-13T04:54:33;12.32;;;7.00;;
80195;SDS011;69516;42.050;21.516;2023-07-13T04:57:00;10.50;;;6.57;;
80195;SDS011;69516;42.050;21.516;2023-07-13T04:59:26;13.02;;;6.88;;
80195;SDS011;69516;42.050;21.516;2023-07-13T05:01:53;9.98;;;6.47;;
80195;SDS011;69516;42.050;21.516;2023-07-13T05:04:19;13.45;;;6.85;;
80195;SDS011;69516;42.050;21.516;2023-07-13T05:06:45;9.95;;;6.55;;
80195;SDS011;69516;42.050;21.516;2023-07-13T05:09:11;11.30;;;6.07;;
80195;SDS011;69516;42.050;21.516;2023-07-13T05:11:37;11.00;;;5.72;;
80195;SDS011;69516;42.050;21.516;2023-07-13T05:14:04;9.88;;;6.25;;
80195;SDS011;69516;42.050;21.516;2023-07-13T05:16:30;9.27;;;5.85;;
80195;SDS011;69516;42.050;21.516;2023-07-13T05:18:57;10.32;;;5.70;;
80195;SDS011;69516;42.050;21.516;2023-07-13T05:21:42;9.82;;;5.97;;
80195;SDS011;69516;42.050;21.516;2023-07-13T05:24:08;8.57;;;5.03;;
80195;SDS011;69516;42.050;21.516;2023-07-13T05:26:34;11.35;;;5.97;;
80195;SDS011;69516;42.050;21.516;2023-07-13T05:29:00;9.90;;;6.10;;
80195;SDS011;69516;42.050;21.516;2023-07-13T05:31:27;9.13;;;6.07;;
80195;SDS011;69516;42.050;21.516;2023-07-13T05:33:53;12.10;;;5.70;;
80195;SDS011;69516;42.050;21.516;2023-07-13T05:36:19;10.15;;;5.95;;
80195;SDS011;69516;42.050;21.516;2023-07-13T05:38:45;9.13;;;6.57;;
80195;SDS011;69516;42.050;21.516;2023-07-13T05:41:11;10.88;;;6.30;;
80195;SDS011;69516;42.050;21.516;2023-07-13T05:43:37;10.77;;;5.97;;
80195;SDS011;69516;42.050;21.516;2023-07-13T05:46:03;9.82;;;6.45;;
80195;SDS011;69516;42.050;21.516;2023-07-13T05:48:29;10.38;;;5.82;;
80195;SDS011;69516;42.050;21.516;2023-07-13T05:50:56;11.25;;;6.60;;
80195;SDS011;69516;42.050;21.516;2023-07-13T05:53:22;11.57;;;6.80;;
80195;SDS011;69516;42.050;21.516;2023-07-13T05:55:48;11.43;;;6.53;;
80195;SDS011;69516;42.050;21.516;2023-07-13T05:58:18;9.32;;;6.28;;
80195;SDS011;69516;42.050;21.516;2023-07-13T06:00:44;12.80;;;6.70;;
80195;SDS011;69516;42.050;21.516;2023-07-13T06:03:11;9.30;;;6.25;;
80195;SDS011;69516;42.050;21.516;2023-07-13T06:05:37;9.65;;;6.45;;
80195;SDS011;69516;42.050;21.516;2023-07-13T06:08:04;9.75;;;6.22;;
80195;SDS011;69516;42.050;21.516;2023-07-13T06:10:33;12.75;;;7.60;;
80195;SDS011;69516;42.050;21.516;2023-07-13T06:13:00;10.15;;;6.20;;
80195;SDS011;69516;42.050;21.516;2023-07-13T06:15:26;11.13;;;6.90;;
80195;SDS011;69516;42.050;21.516;2023-07-13T06:17:52;11.60;;;6.60;;
80195;SDS011;69516;42.050;21.516;2023-07-13T06:20:18;10.20;;;6.53;;
80195;SDS011;69516;42.050;21.516;2023-07-13T06:22:44;13.15;;;6.95;;
80195;SDS011;69516;42.050;21.516;2023-07-13T06:25:10;9.70;;;6.25;;
80195;SDS011;69516;42.050;21.516;2023-07-13T06:27:36;10.73;;;6.25;;
80195;SDS011;69516;42.050;21.516;2023-07-13T06:30:03;11.07;;;6.80;;
80195;SDS011;69516;42.050;21.516;2023-07-13T06:32:29;12.13;;;6.82;;
80195;SDS011;69516;42.050;21.516;2023-07-13T06:34:55;9.45;;;6.38;;
80195;SDS011;69516;42.050;21.516;2023-07-13T06:37:22;11.43;;;6.80;;
80195;SDS011;69516;42.050;21.516;2023-07-13T06:39:48;12.45;;;7.18;;
80195;SDS011;69516;42.050;21.516;2023-07-13T06:42:15;10.48;;;7.13;;
80195;SDS011;69516;42.050;21.516;2023-07-13T06:44:41;12.13;;;7.32;;
80195;SDS011;69516;42.050;21.516;2023-07-13T06:47:07;11.70;;;7.20;;
80195;SDS011;69516;42.050;21.516;2023-07-13T06:49:33;12.57;;;7.70;;
80195;SDS011;69516;42.050;21.516;2023-07-13T06:51:59;13.55;;;7.95;;
80195;SDS011;69516;42.050;21.516;2023-07-13T06:54:26;13.38;;;7.85;;
80195;SDS011;69516;42.050;21.516;2023-07-13T06:56:52;14.80;;;7.85;;
80195;SDS011;69516;42.050;21.516;2023-07-13T06:59:19;14.18;;;8.15;;
80195;SDS011;69516;42.050;21.516;2023-07-13T07:01:45;14.07;;;8.07;;
80195;SDS011;69516;42.050;21.516;2023-07-13T07:04:11;14.80;;;7.60;;
80195;SDS011;69516;42.050;21.516;2023-07-13T07:06:37;16.25;;;9.15;;
80195;SDS011;69516;42.050;21.516;2023-07-13T07:09:03;13.90;;;7.15;;
80195;SDS011;69516;42.050;21.516;2023-07-13T07:11:30;14.65;;;10.02;;
80195;SDS011;69516;42.050;21.516;2023-07-13T07:13:56;12.55;;;8.57;;
80195;SDS011;69516;42.050;21.516;2023-07-13T07:16:24;13.63;;;8.38;;
80195;SDS011;69516;42.050;21.516;2023-07-13T07:18:50;12.50;;;8.20;;
80195;SDS011;69516;42.050;21.516;2023-07-13T07:21:16;13.35;;;8.80;;
80195;SDS011;69516;42.050;21.516;2023-07-13T07:23:42;14.13;;;7.85;;
80195;SDS011;69516;42.050;21.516;2023-07-13T07:26:09;11.52;;;7.60;;
80195;SDS011;69516;42.050;21.516;2023-07-13T07:28:35;13.43;;;7.63;;
80195;SDS011;69516;42.050;21.516;2023-07-13T07:31:01;13.23;;;7.85;;
80195;SDS011;69516;42.050;21.516;2023-07-13T07:33:28;11.70;;;7.55;;
80195;SDS011;69516;42.050;21.516;2023-07-13T07:35:54;14.23;;;8.27;;
80195;SDS011;69516;42.050;21.516;2023-07-13T07:38:20;17.00;;;7.63;;
80195;SDS011;69516;42.050;21.516;2023-07-13T07:40:47;16.13;;;8.57;;
80195;SDS011;69516;42.050;21.516;2023-07-13T07:43:13;12.85;;;8.90;;
80195;SDS011;69516;42.050;21.516;2023-07-13T07:45:39;11.25;;;6.45;;
80195;SDS011;69516;42.050;21.516;2023-07-13T07:48:06;13.23;;;7.85;;
80195;SDS011;69516;42.050;21.516;2023-07-13T07:50:32;17.58;;;9.68;;
80195;SDS011;69516;42.050;21.516;2023-07-13T07:52:59;17.48;;;8.88;;
80195;SDS011;69516;42.050;21.516;2023-07-13T07:55:27;14.32;;;8.90;;
80195;SDS011;69516;42.050;21.516;2023-07-13T07:57:53;17.88;;;8.80;;
80195;SDS011;69516;42.050;21.516;2023-07-13T08:00:20;18.45;;;9.32;;
80195;SDS011;69516;42.050;21.516;2023-07-13T08:02:46;13.77;;;9.40;;
80195;SDS011;69516;42.050;21.516;2023-07-13T08:05:13;15.93;;;9.25;;
80195;SDS011;69516;42.050;21.516;2023-07-13T08:07:39;18.52;;;8.95;;
80195;SDS011;69516;42.050;21.516;2023-07-13T08:10:06;16.38;;;8.57;;
80195;SDS011;69516;42.050;21.516;2023-07-13T08:12:34;17.48;;;10.48;;
80195;SDS011;69516;42.050;21.516;2023-07-13T08:15:00;21.30;;;10.65;;
80195;SDS011;69516;42.050;21.516;2023-07-13T08:17:26;15.48;;;9.68;;
80195;SDS011;69516;42.050;21.516;2023-07-13T08:19:52;17.23;;;10.65;;
80195;SDS011;69516;42.050;21.516;2023-07-13T08:22:18;19.35;;;10.38;;
80195;SDS011;69516;42.050;21.516;2023-07-13T08:24:45;16.85;;;10.02;;
80195;SDS011;69516;42.050;21.516;2023-07-13T08:27:12;15.95;;;10.13;;
80195;SDS011;69516;42.050;21.516;2023-07-13T08:29:39;18.42;;;10.60;;
80195;SDS011;69516;42.050;21.516;2023-07-13T08:32:05;16.35;;;9.80;;
80195;SDS011;69516;42.050;21.516;2023-07-13T08:34:36;16.67;;;9.55;;
80195;SDS011;69516;42.050;21.516;2023-07-13T08:37:02;19.60;;;9.57;;
80195;SDS011;69516;42.050;21.516;2023-07-13T08:39:29;16.15;;;9.05;;
80195;SDS011;69516;42.050;21.516;2023-07-13T08:41:58;16.27;;;10.15;;
80195;SDS011;69516;42.050;21.516;2023-07-13T08:44:29;15.45;;;9.13;;
80195;SDS011;69516;42.050;21.516;2023-07-13T08:46:58;15.73;;;9.82;;
80195;SDS011;69516;42.050;21.516;2023-07-13T08:49:25;15.40;;;10.40;;
80195;SDS011;69516;42.050;21.516;2023-07-13T08:51:59;14.85;;;9.90;;
80195;SDS011;69516;42.050;21.516;2023-07-13T08:54:34;12.88;;;8.95;;
80195;SDS011;69516;42.050;21.516;2023-07-13T08:57:02;14.38;;;9.02;;
80195;SDS011;69516;42.050;21.516;2023-07-13T08:59:30;18.55;;;9.43;;
80195;SDS011;69516;42.050;21.516;2023-07-13T09:02:00;16.35;;;8.60;;
80195;SDS011;69516;42.050;21.516;2023-07-13T09:04:41;15.65;;;8.60;;
80195;SDS011;69516;42.050;21.516;2023-07-13T09:07:17;14.95;;;8.65;;
80195;SDS011;69516;42.050;21.516;2023-07-13T09:12:15;11.50;;;7.85;;
80195;SDS011;69516;42.050;21.516;2023-07-13T09:14:45;12.93;;;8.07;;
80195;SDS011;69516;42.050;21.516;2023-07-13T09:17:17;16.00;;;7.63;;
80195;SDS011;69516;42.050;21.516;2023-07-13T09:19:43;11.32;;;7.47;;
80195;SDS011;69516;42.050;21.516;2023-07-13T09:22:13;17.45;;;7.50;;
80195;SDS011;69516;42.050;21.516;2023-07-13T09:24:47;13.20;;;7.82;;
80195;SDS011;69516;42.050;21.516;2023-07-13T09:27:20;13.93;;;7.50;;
80195;SDS011;69516;42.050;21.516;2023-07-13T09:29:58;12.88;;;7.60;;
80195;SDS011;69516;42.050;21.516;2023-07-13T09:32:28;11.77;;;7.22;;
80195;SDS011;69516;42.050;21.516;2023-07-13T09:34:54;12.50;;;7.50;;
80195;SDS011;69516;42.050;21.516;2023-07-13T09:37:27;11.15;;;6.85;;
80195;SDS011;69516;42.050;21.516;2023-07-13T09:39:54;14.02;;;7.35;;
80195;SDS011;69516;42.050;21.516;2023-07-13T09:42:22;10.48;;;7.40;;
80195;SDS011;69516;42.050;21.516;2023-07-13T09:44:52;11.80;;;7.05;;
80195;SDS011;69516;42.050;21.516;2023-07-13T09:47:20;11.80;;;7.22;;
80195;SDS011;69516;42.050;21.516;2023-07-13T09:49:53;12.23;;;7.28;;
80195;SDS011;69516;42.050;21.516;2023-07-13T09:52:20;12.98;;;7.75;;
80195;SDS011;69516;42.050;21.516;2023-07-13T09:54:48;12.57;;;6.80;;
80195;SDS011;69516;42.050;21.516;2023-07-13T09:57:16;13.75;;;7.40;;
80195;SDS011;69516;42.050;21.516;2023-07-13T09:59:44;12.20;;;7.43;;
80195;SDS011;69516;42.050;21.516;2023-07-13T10:04:53;13.27;;;7.60;;
80195;SDS011;69516;42.050;21.516;2023-07-13T10:07:22;11.90;;;6.80;;
80195;SDS011;69516;42.050;21.516;2023-07-13T10:09:51;12.32;;;7.22;;
80195;SDS011;69516;42.050;21.516;2023-07-13T10:12:19;12.75;;;7.38;;
80195;SDS011;69516;42.050;21.516;2023-07-13T10:14:45;11.75;;;7.05;;
80195;SDS011;69516;42.050;21.516;2023-07-13T10:17:14;9.38;;;6.18;;
80195;SDS011;69516;42.050;21.516;2023-07-13T10:19:42;11.00;;;6.95;;
80195;SDS011;69516;42.050;21.516;2023-07-13T10:24:36;13.02;;;6.43;;
80195;SDS011;69516;42.050;21.516;2023-07-13T10:27:15;10.48;;;6.10;;
80195;SDS011;69516;42.050;21.516;2023-07-13T10:30:06;10.35;;;5.93;;
80195;SDS011;69516;42.050;21.516;2023-07-13T10:32:28;12.35;;;6.10;;
80195;SDS011;69516;42.050;21.516;2023-07-13T10:34:54;11.07;;;5.32;;
80195;SDS011;69516;42.050;21.516;2023-07-13T10:37:24;10.10;;;5.60;;
80195;SDS011;69516;42.050;21.516;2023-07-13T10:39:53;9.02;;;5.47;;
80195;SDS011;69516;42.050;21.516;2023-07-13T10:42:30;11.05;;;5.78;;
80195;SDS011;69516;42.050;21.516;2023-07-13T10:44:58;10.48;;;5.55;;
80195;SDS011;69516;42.050;21.516;2023-07-13T10:47:24;12.85;;;5.47;;
80195;SDS011;69516;42.050;21.516;2023-07-13T10:49:51;9.15;;;5.45;;
80195;SDS011;69516;42.050;21.516;2023-07-13T10:55:03;9.07;;;5.60;;
80195;SDS011;69516;42.050;21.516;2023-07-13T10:57:31;9.73;;;5.28;;
80195;SDS011;69516;42.050;21.516;2023-07-13T11:00:14;9.40;;;5.10;;
80195;SDS011;69516;42.050;21.516;2023-07-13T11:02:41;9.07;;;5.68;;
80195;SDS011;69516;42.050;21.516;2023-07-13T11:05:27;8.95;;;5.63;;
80195;SDS011;69516;42.050;21.516;2023-07-13T11:07:55;10.57;;;5.05;;
80195;SDS011;69516;42.050;21.516;2023-07-13T11:15:57;8.73;;;5.18;;
80195;SDS011;69516;42.050;21.516;2023-07-13T11:18:23;9.75;;;5.25;;
80195;SDS011;69516;42.050;21.516;2023-07-13T11:20:50;12.85;;;5.40;;
80195;SDS011;69516;42.050;21.516;2023-07-13T11:23:18;8.90;;;5.10;;
80195;SDS011;69516;42.050;21.516;2023-07-13T11:25:45;8.07;;;4.75;;
80195;SDS011;69516;42.050;21.516;2023-07-13T11:30:41;8.98;;;4.65;;
80195;SDS011;69516;42.050;21.516;2023-07-13T11:35:40;11.85;;;5.03;;
80195;SDS011;69516;42.050;21.516;2023-07-13T11:38:21;9.15;;;5.07;;
80195;SDS011;69516;42.050;21.516;2023-07-13T11:40:50;8.50;;;4.88;;
80195;SDS011;69516;42.050;21.516;2023-07-13T11:43:17;9.02;;;4.80;;
80195;SDS011;69516;42.050;21.516;2023-07-13T11:45:44;9.68;;;5.07;;
80195;SDS011;69516;42.050;21.516;2023-07-13T11:48:17;11.38;;;5.28;;
80195;SDS011;69516;42.050;21.516;2023-07-13T11:50:50;10.65;;;5.20;;
80195;SDS011;69516;42.050;21.516;2023-07-13T11:53:16;9.00;;;5.35;;
80195;SDS011;69516;42.050;21.516;2023-07-13T11:55:42;8.85;;;5.15;;
80195;SDS011;69516;42.050;21.516;2023-07-13T11:58:09;9.10;;;4.65;;
80195;SDS011;69516;42.050;21.516;2023-07-13T12:00:35;9.52;;;4.78;;
80195;SDS011;69516;42.050;21.516;2023-07-13T12:05:30;8.90;;;5.30;;
80195;SDS011;69516;42.050;21.516;2023-07-13T12:07:57;8.55;;;4.97;;
80195;SDS011;69516;42.050;21.516;2023-07-13T12:10:24;9.35;;;4.65;;
80195;SDS011;69516;42.050;21.516;2023-07-13T12:13:04;9.65;;;5.18;;
80195;SDS011;69516;42.050;21.516;2023-07-13T12:15:37;9.13;;;5.15;;
80195;SDS011;69516;42.050;21.516;2023-07-13T12:18:11;8.35;;;5.15;;
80195;SDS011;69516;42.050;21.516;2023-07-13T12:20:38;9.02;;;4.90;;
80195;SDS011;69516;42.050;21.516;2023-07-13T12:23:05;10.18;;;4.85;;
80195;SDS011;69516;42.050;21.516;2023-07-13T12:25:31;10.32;;;5.38;;
80195;SDS011;69516;42.050;21.516;2023-07-13T12:27:57;9.25;;;5.07;;
80195;SDS011;69516;42.050;21.516;2023-07-13T12:30:28;9.15;;;5.00;;
80195;SDS011;69516;42.050;21.516;2023-07-13T12:32:59;11.07;;;5.90;;
80195;SDS011;69516;42.050;21.516;2023-07-13T12:35:26;8.57;;;5.15;;
80195;SDS011;69516;42.050;21.516;2023-07-13T12:37:54;9.57;;;5.10;;
80195;SDS011;69516;42.050;21.516;2023-07-13T12:40:31;10.40;;;5.07;;
80195;SDS011;69516;42.050;21.516;2023-07-13T12:42:58;10.20;;;5.30;;
80195;SDS011;69516;42.050;21.516;2023-07-13T12:45:26;8.60;;;4.90;;
80195;SDS011;69516;42.050;21.516;2023-07-13T12:47:57;8.63;;;5.18;;
80195;SDS011;69516;42.050;21.516;2023-07-13T12:50:46;8.02;;;5.20;;
80195;SDS011;69516;42.050;21.516;2023-07-13T12:53:14;8.27;;;5.38;;
80195;SDS011;69516;42.050;21.516;2023-07-13T12:55:48;10.18;;;5.70;;
80195;SDS011;69516;42.050;21.516;2023-07-13T12:58:20;7.75;;;4.75;;
80195;SDS011;69516;42.050;21.516;2023-07-13T13:00:50;7.90;;;4.80;;
80195;SDS011;69516;42.050;21.516;2023-07-13T13:05:45;11.30;;;5.38;;
80195;SDS011;69516;42.050;21.516;2023-07-13T13:08:11;8.18;;;5.13;;
80195;SDS011;69516;42.050;21.516;2023-07-13T13:10:38;9.23;;;5.20;;
80195;SDS011;69516;42.050;21.516;2023-07-13T13:13:04;10.48;;;5.15;;
80195;SDS011;69516;42.050;21.516;2023-07-13T13:15:32;8.90;;;5.22;;
80195;SDS011;69516;42.050;21.516;2023-07-13T13:17:58;10.82;;;5.50;;
80195;SDS011;69516;42.050;21.516;2023-07-13T13:20:24;9.77;;;5.40;;
80195;SDS011;69516;42.050;21.516;2023-07-13T13:22:51;10.18;;;5.32;;
80195;SDS011;69516;42.050;21.516;2023-07-13T13:25:17;8.30;;;5.32;;
80195;SDS011;69516;42.050;21.516;2023-07-13T13:27:45;11.32;;;5.25;;
80195;SDS011;69516;42.050;21.516;2023-07-13T13:30:12;8.60;;;5.32;;
80195;SDS011;69516;42.050;21.516;2023-07-13T13:32:39;9.18;;;5.22;;
80195;SDS011;69516;42.050;21.516;2023-07-13T13:35:07;9.25;;;5.35;;
80195;SDS011;69516;42.050;21.516;2023-07-13T13:37:38;8.25;;;4.85;;
80195;SDS011;69516;42.050;21.516;2023-07-13T13:40:13;8.60;;;4.95;;
80195;SDS011;69516;42.050;21.516;2023-07-13T13:42:39;9.13;;;5.32;;
80195;SDS011;69516;42.050;21.516;2023-07-13T13:45:06;9.00;;;5.50;;
80195;SDS011;69516;42.050;21.516;2023-07-13T13:47:33;10.98;;;5.40;;
80195;SDS011;69516;42.050;21.516;2023-07-13T13:50:01;9.35;;;5.53;;
80195;SDS011;69516;42.050;21.516;2023-07-13T13:52:27;7.25;;;4.65;;
80195;SDS011;69516;42.050;21.516;2023-07-13T13:54:53;10.15;;;5.10;;
80195;SDS011;69516;42.050;21.516;2023-07-13T13:57:23;8.15;;;5.10;;
80195;SDS011;69516;42.050;21.516;2023-07-13T13:59:51;9.27;;;4.60;;
80195;SDS011;69516;42.050;21.516;2023-07-13T14:02:24;11.07;;;5.15;;
80195;SDS011;69516;42.050;21.516;2023-07-13T14:04:58;9.55;;;4.82;;
80195;SDS011;69516;42.050;21.516;2023-07-13T14:07:25;8.77;;;5.10;;
80195;SDS011;69516;42.050;21.516;2023-07-13T14:09:55;7.97;;;4.72;;
80195;SDS011;69516;42.050;21.516;2023-07-13T14:12:22;10.23;;;5.03;;
80195;SDS011;69516;42.050;21.516;2023-07-13T14:14:51;9.30;;;4.95;;
80195;SDS011;69516;42.050;21.516;2023-07-13T14:17:19;9.43;;;5.05;;
80195;SDS011;69516;42.050;21.516;2023-07-13T14:19:47;8.65;;;4.63;;
80195;SDS011;69516;42.050;21.516;2023-07-13T14:22:16;9.05;;;5.15;;
80195;SDS011;69516;42.050;21.516;2023-07-13T14:24:42;9.77;;;5.07;;
80195;SDS011;69516;42.050;21.516;2023-07-13T14:27:11;7.53;;;4.82;;
80195;SDS011;69516;42.050;21.516;2023-07-13T14:29:38;8.27;;;4.70;;
80195;SDS011;69516;42.050;21.516;2023-07-13T14:32:05;9.55;;;5.13;;
80195;SDS011;69516;42.050;21.516;2023-07-13T14:34:31;8.30;;;4.82;;
80195;SDS011;69516;42.050;21.516;2023-07-13T14:36:58;9.60;;;4.90;;
80195;SDS011;69516;42.050;21.516;2023-07-13T14:39:24;8.52;;;4.82;;
80195;SDS011;69516;42.050;21.516;2023-07-13T14:41:51;8.32;;;5.18;;
80195;SDS011;69516;42.050;21.516;2023-07-13T14:44:19;9.75;;;5.13;;
80195;SDS011;69516;42.050;21.516;2023-07-13T14:46:46;8.38;;;4.95;;
80195;SDS011;69516;42.050;21.516;2023-07-13T14:51:44;7.70;;;4.50;;
80195;SDS011;69516;42.050;21.516;2023-07-13T14:54:10;8.88;;;4.65;;